Time;durP1;ratioP1;P1;durP2;ratioP2;P2;SDS_P1;SDS_P2;PMS_P1;PMS_P2;Temp;Humidity;BMP_temperature;BMP_pressure;BME280_temperature;BME280_humidity;BME280_pressure;Samples;Min_cycle;Max_cycle;Signal;HPM_P1;HPM_P2
2021/03/19 00:00:18;;;;;;;0.45;0.45;;;3.90;87.70;;;;;;5113772;28;20462;-73
2021/03/19 00:02:44;;;;;;;1.08;0.60;;;3.90;87.80;;;;;;5115914;28;20035;-72
2021/03/19 00:05:14;;;;;;;1.45;0.65;;;3.80;87.70;;;;;;5115522;28;20039;-73
2021/03/19 00:07:42;;;;;;;1.20;0.60;;;4.00;87.90;;;;;;5115991;28;20070;-73
2021/03/19 00:10:09;;;;;;;0.40;0.40;;;3.80;87.80;;;;;;5097789;28;20066;-75
2021/03/19 00:12:35;;;;;;;0.88;0.57;;;3.70;87.80;;;;;;5116254;28;20051;-75
2021/03/19 00:15:00;;;;;;;0.98;0.60;;;3.70;87.90;;;;;;5115853;28;20051;-72
2021/03/19 00:17:26;;;;;;;1.30;0.73;;;3.70;87.90;;;;;;5115778;28;20035;-73
2021/03/19 00:19:52;;;;;;;0.80;0.50;;;3.70;88.00;;;;;;5116024;28;20043;-73
2021/03/19 00:22:18;;;;;;;0.80;0.60;;;3.60;88.00;;;;;;5115532;28;20038;-73
2021/03/19 00:24:43;;;;;;;0.60;0.50;;;3.60;88.00;;;;;;5116001;28;20122;-73
2021/03/19 00:27:09;;;;;;;0.60;0.40;;;3.50;88.00;;;;;;5115980;28;20126;-73
2021/03/19 00:29:36;;;;;;;0.40;0.40;;;3.50;88.00;;;;;;5115192;28;20035;-73
2021/03/19 00:32:01;;;;;;;0.55;0.52;;;3.50;88.10;;;;;;5115588;28;20048;-73
2021/03/19 00:34:27;;;;;;;0.32;0.30;;;3.50;88.20;;;;;;5115569;28;20118;-73
2021/03/19 00:36:53;;;;;;;0.73;0.52;;;3.40;88.10;;;;;;5115582;28;20035;-72
2021/03/19 00:39:18;;;;;;;1.27;0.68;;;3.40;88.20;;;;;;5114764;28;20043;-73
2021/03/19 00:41:44;;;;;;;0.80;0.55;;;3.40;88.20;;;;;;5114827;28;20374;-74
2021/03/19 00:44:10;;;;;;;0.80;0.52;;;3.40;88.30;;;;;;5115552;28;20046;-74
2021/03/19 00:46:35;;;;;;;1.33;0.52;;;3.30;88.30;;;;;;5114593;28;20109;-74
2021/03/19 00:49:01;;;;;;;1.23;0.60;;;3.30;88.30;;;;;;5114849;28;20067;-73
2021/03/19 00:51:27;;;;;;;0.98;0.52;;;3.30;88.40;;;;;;5115170;28;20036;-72
2021/03/19 00:53:52;;;;;;;0.82;0.60;;;3.20;88.40;;;;;;5114734;28;20055;-72
2021/03/19 00:56:18;;;;;;;0.70;0.50;;;3.20;88.40;;;;;;5114874;28;20046;-74
2021/03/19 00:58:44;;;;;;;0.50;0.50;;;3.10;88.40;;;;;;5115567;28;20460;-77
2021/03/19 01:01:09;;;;;;;0.55;0.55;;;3.20;88.50;;;;;;5097457;28;20043;-78
2021/03/19 01:03:35;;;;;;;1.08;0.60;;;3.10;88.50;;;;;;5116577;28;20042;-77
2021/03/19 01:06:01;;;;;;;0.70;0.50;;;3.00;88.40;;;;;;5079360;28;20132;-76
2021/03/19 01:08:27;;;;;;;0.63;0.57;;;3.00;88.50;;;;;;5115878;28;20040;-74
2021/03/19 01:10:55;;;;;;;0.52;0.43;;;3.10;88.60;;;;;;5114795;28;20054;-74
2021/03/19 01:13:22;;;;;;;0.32;0.32;;;3.10;88.70;;;;;;5116118;28;20051;-74
2021/03/19 01:15:47;;;;;;;0.95;0.57;;;2.90;88.60;;;;;;5100837;28;20478;-73
2021/03/19 01:18:17;;;;;;;0.43;0.40;;;3.00;88.70;;;;;;5096437;28;20054;-73
2021/03/19 01:20:44;;;;;;;0.68;0.60;;;2.90;88.70;;;;;;5114733;28;20036;-73
2021/03/19 01:23:11;;;;;;;0.50;0.30;;;2.90;88.70;;;;;;5116837;28;20039;-73
2021/03/19 01:25:37;;;;;;;0.82;0.50;;;2.90;88.70;;;;;;5114325;28;20046;-72
2021/03/19 01:28:04;;;;;;;0.77;0.65;;;3.00;88.80;;;;;;5096131;28;20040;-71
2021/03/19 01:30:32;;;;;;;0.93;0.70;;;2.80;88.70;;;;;;5114098;28;20127;-72
2021/03/19 01:32:58;;;;;;;1.17;0.70;;;2.80;88.80;;;;;;5114310;28;20054;-73
2021/03/19 01:35:24;;;;;;;0.57;0.57;;;2.80;88.80;;;;;;5114522;28;20043;-73
2021/03/19 01:37:51;;;;;;;0.85;0.60;;;2.80;88.90;;;;;;5095716;28;20043;-72
2021/03/19 01:40:22;;;;;;;0.50;0.45;;;2.80;88.90;;;;;;5114518;28;20042;-73
2021/03/19 01:43:13;;;;;;;0.90;0.70;;;2.70;88.90;;;;;;5114359;28;20080;-73
2021/03/19 01:46:14;;;;;;;1.25;0.73;;;2.70;88.90;;;;;;5113867;28;20100;-73
2021/03/19 01:49:14;;;;;;;0.73;0.52;;;2.60;88.90;;;;;;5113827;28;20046;-73
2021/03/19 01:52:14;;;;;;;1.80;0.52;;;2.70;89.00;;;;;;5113698;28;20035;-72
2021/03/19 01:55:14;;;;;;;0.75;0.57;;;2.60;89.00;;;;;;5113762;28;20071;-73
2021/03/19 01:58:14;;;;;;;1.27;0.70;;;2.60;89.00;;;;;;5111122;28;20490;-73
2021/03/19 02:01:14;;;;;;;0.93;0.73;;;2.50;89.00;;;;;;5113719;28;20047;-73
2021/03/19 02:04:15;;;;;;;0.60;0.40;;;2.50;89.10;;;;;;5094240;28;20442;-72
2021/03/19 02:07:15;;;;;;;1.42;0.90;;;2.50;89.10;;;;;;5113530;28;20089;-73
2021/03/19 02:10:15;;;;;;;0.57;0.40;;;2.50;89.10;;;;;;5113420;28;20044;-73
2021/03/19 02:13:15;;;;;;;0.80;0.55;;;2.40;89.10;;;;;;5113459;28;20032;-73
2021/03/19 02:16:15;;;;;;;0.70;0.45;;;2.50;89.10;;;;;;5113282;28;20035;-73
2021/03/19 02:19:16;;;;;;;0.75;0.60;;;2.40;89.10;;;;;;5113158;28;20043;-73
2021/03/19 02:22:16;;;;;;;1.88;0.93;;;2.40;89.10;;;;;;5113408;28;20039;-73
2021/03/19 02:25:16;;;;;;;1.08;0.63;;;2.40;89.10;;;;;;5112955;28;20089;-73
2021/03/19 02:28:19;;;;;;;1.20;0.50;;;2.30;89.10;;;;;;5113213;28;20040;-73
2021/03/19 02:31:12;;;;;;;0.60;0.47;;;2.30;89.10;;;;;;5094776;28;20479;-72
2021/03/19 02:33:52;;;;;;;0.60;0.60;;;2.30;89.10;;;;;;5112484;28;20046;-73
2021/03/19 02:36:22;;;;;;;1.17;0.80;;;2.30;89.20;;;;;;5096638;28;20092;-73
2021/03/19 02:38:49;;;;;;;0.73;0.60;;;2.30;89.30;;;;;;5113265;28;20516;-73
2021/03/19 02:41:15;;;;;;;1.08;0.55;;;2.20;89.20;;;;;;5112952;28;20047;-73
2021/03/19 02:43:41;;;;;;;1.40;0.70;;;2.30;89.30;;;;;;5112772;28;20032;-73
2021/03/19 02:46:06;;;;;;;1.60;0.75;;;2.20;89.30;;;;;;5113041;28;20123;-73
2021/03/19 02:48:32;;;;;;;0.90;0.52;;;2.20;89.40;;;;;;5113253;28;20181;-73
2021/03/19 02:50:58;;;;;;;0.93;0.60;;;2.20;89.40;;;;;;5113419;28;20100;-73
2021/03/19 02:53:27;;;;;;;1.10;0.80;;;2.20;89.40;;;;;;5113403;28;20117;-72
2021/03/19 02:55:55;;;;;;;1.33;0.70;;;2.10;89.40;;;;;;5112879;28;20485;-73
2021/03/19 02:58:21;;;;;;;0.65;0.50;;;2.20;89.50;;;;;;5112554;28;20055;-72
2021/03/19 03:00:47;;;;;;;0.70;0.60;;;2.10;89.50;;;;;;5094422;28;20081;-73
2021/03/19 03:03:13;;;;;;;1.27;0.80;;;2.00;89.50;;;;;;5112610;28;20059;-73
2021/03/19 03:05:39;;;;;;;0.68;0.60;;;2.00;89.50;;;;;;5112858;28;20393;-73
2021/03/19 03:08:05;;;;;;;0.90;0.60;;;2.00;89.50;;;;;;5113224;28;20114;-73
2021/03/19 03:10:33;;;;;;;1.17;0.70;;;2.10;89.60;;;;;;5113064;28;20438;-73
2021/03/19 03:12:59;;;;;;;0.63;0.50;;;2.00;89.60;;;;;;5094501;28;20055;-72
2021/03/19 03:15:25;;;;;;;1.30;0.80;;;2.00;89.60;;;;;;5112477;28;20397;-72
2021/03/19 03:17:51;;;;;;;0.55;0.55;;;2.00;89.70;;;;;;5112433;28;20044;-72
2021/03/19 03:20:23;;;;;;;1.70;0.77;;;2.00;89.70;;;;;;5095064;28;20481;-72
2021/03/19 03:22:49;;;;;;;0.65;0.60;;;1.90;89.70;;;;;;5113119;28;20040;-72
2021/03/19 03:25:16;;;;;;;1.77;0.60;;;1.90;89.70;;;;;;5112732;28;20047;-73
2021/03/19 03:27:42;;;;;;;0.85;0.60;;;1.90;89.80;;;;;;5112661;28;20043;-72
2021/03/19 03:30:13;;;;;;;1.85;0.80;;;1.80;90.00;;;;;;5112881;28;20047;-72
2021/03/19 03:32:39;;;;;;;0.63;0.40;;;1.80;89.80;;;;;;5112791;28;20180;-72
2021/03/19 03:35:05;;;;;;;0.77;0.57;;;1.80;89.80;;;;;;5115335;28;20122;-72
2021/03/19 03:37:32;;;;;;;0.73;0.60;;;1.80;89.90;;;;;;5097714;28;20500;-73
2021/03/19 03:39:57;;;;;;;0.50;0.47;;;1.80;89.80;;;;;;5097591;28;20039;-72
2021/03/19 03:42:23;;;;;;;0.63;0.50;;;1.80;89.90;;;;;;5116096;28;20508;-72
2021/03/19 03:44:49;;;;;;;0.47;0.35;;;1.80;89.80;;;;;;5115804;28;20077;-72
2021/03/19 03:47:15;;;;;;;1.05;0.65;;;1.70;89.80;;;;;;5115886;28;20058;-72
2021/03/19 03:49:40;;;;;;;0.50;0.40;;;1.70;89.90;;;;;;5115730;28;20494;-72
2021/03/19 03:52:06;;;;;;;0.90;0.50;;;1.70;89.90;;;;;;5115686;28;20040;-72
2021/03/19 03:54:32;;;;;;;0.57;0.47;;;1.70;89.90;;;;;;5116168;28;20044;-72
2021/03/19 03:56:57;;;;;;;0.45;0.30;;;1.70;89.90;;;;;;5115613;28;20401;-72
2021/03/19 03:59:23;;;;;;;1.10;0.50;;;1.70;89.90;;;;;;5115464;28;20036;-72
2021/03/19 04:01:52;;;;;;;0.50;0.50;;;1.70;89.90;;;;;;5115717;28;20538;-72
2021/03/19 04:04:19;;;;;;;0.60;0.40;;;1.70;89.90;;;;;;5115684;28;20075;-72
2021/03/19 04:06:44;;;;;;;0.93;0.60;;;1.70;89.90;;;;;;5115456;28;20081;-72
2021/03/19 04:09:10;;;;;;;1.08;0.60;;;1.70;89.90;;;;;;5115636;28;20051;-72
2021/03/19 04:11:36;;;;;;;0.88;0.65;;;1.70;89.90;;;;;;5115485;28;20431;-72
2021/03/19 04:14:02;;;;;;;1.52;0.88;;;1.70;89.90;;;;;;5115514;28;20043;-72
2021/03/19 04:16:28;;;;;;;0.45;0.45;;;1.70;89.90;;;;;;5115078;28;20051;-72
2021/03/19 04:18:54;;;;;;;0.88;0.45;;;1.70;89.70;;;;;;5114904;28;20040;-72
2021/03/19 04:21:20;;;;;;;0.88;0.52;;;1.70;89.70;;;;;;5115218;28;20035;-72
2021/03/19 04:23:48;;;;;;;2.05;0.68;;;1.70;89.70;;;;;;5115468;28;20520;-72
2021/03/19 04:26:28;;;;;;;0.57;0.50;;;1.60;89.60;;;;;;5115382;28;20079;-72
2021/03/19 04:28:54;;;;;;;0.98;0.70;;;1.70;89.70;;;;;;5114951;28;20048;-72
2021/03/19 04:31:20;;;;;;;1.45;0.50;;;1.60;89.60;;;;;;5115125;28;20107;-72
2021/03/19 04:33:47;;;;;;;0.63;0.60;;;1.60;89.60;;;;;;5115566;28;20044;-72
2021/03/19 04:36:37;;;;;;;1.67;0.52;;;1.60;89.60;;;;;;5115522;28;20044;-72
2021/03/19 04:39:08;;;;;;;1.55;0.77;;;1.60;89.60;;;;;;5114975;28;20040;-71
2021/03/19 04:41:34;;;;;;;0.85;0.50;;;1.60;89.50;;;;;;5115010;28;20035;-72
2021/03/19 04:44:01;;;;;;;1.30;0.60;;;1.60;89.50;;;;;;5114691;28;20035;-71
2021/03/19 04:46:27;;;;;;;0.90;0.55;;;1.60;89.40;;;;;;5114581;28;20426;-71
2021/03/19 04:48:53;;;;;;;1.17;0.60;;;1.60;89.40;;;;;;5096979;28;20127;-72
2021/03/19 04:51:19;;;;;;;0.77;0.50;;;1.50;89.40;;;;;;5114785;28;20032;-72
2021/03/19 04:53:44;;;;;;;2.05;0.80;;;1.60;89.40;;;;;;5114950;28;20085;-72
2021/03/19 04:56:10;;;;;;;1.02;0.60;;;1.50;89.40;;;;;;5115146;28;20039;-72
2021/03/19 04:58:36;;;;;;;3.30;1.00;;;1.40;89.40;;;;;;5114631;28;20067;-72
2021/03/19 05:01:02;;;;;;;0.88;0.55;;;1.50;90.00;;;;;;5114855;28;20582;-72
2021/03/19 05:03:27;;;;;;;1.02;0.55;;;1.40;89.40;;;;;;5097104;28;20492;-71
2021/03/19 05:05:53;;;;;;;0.80;0.55;;;1.40;89.50;;;;;;5097269;28;20081;-71
2021/03/19 05:08:19;;;;;;;0.55;0.45;;;1.40;89.50;;;;;;5114560;28;20493;-72
2021/03/19 05:10:45;;;;;;;1.75;0.60;;;1.30;89.50;;;;;;5114641;28;20110;-72
2021/03/19 05:13:10;;;;;;;1.33;0.77;;;1.40;89.60;;;;;;5114536;28;20043;-72
2021/03/19 05:15:37;;;;;;;0.80;0.47;;;1.30;89.60;;;;;;5096196;28;20036;-72
2021/03/19 05:18:04;;;;;;;1.20;0.65;;;1.30;89.60;;;;;;5114799;28;20058;-72
2021/03/19 05:20:30;;;;;;;0.80;0.60;;;1.30;89.60;;;;;;5114917;28;20058;-72
2021/03/19 05:22:56;;;;;;;1.05;0.70;;;1.30;89.60;;;;;;5115148;28;20502;-72
2021/03/19 05:25:26;;;;;;;0.95;0.50;;;1.30;89.70;;;;;;5115069;28;20044;-72
2021/03/19 05:27:53;;;;;;;1.40;0.45;;;1.30;89.50;;;;;;5114973;28;20114;-72
2021/03/19 05:30:20;;;;;;;1.15;0.60;;;1.30;89.50;;;;;;5114009;28;20043;-72
2021/03/19 05:32:46;;;;;;;1.02;0.52;;;1.30;89.50;;;;;;5114112;28;20119;-72
2021/03/19 05:35:14;;;;;;;0.85;0.50;;;1.40;89.50;;;;;;5114072;28;20485;-72
2021/03/19 05:37:39;;;;;;;0.80;0.30;;;1.20;89.40;;;;;;5114102;28;20040;-71
2021/03/19 05:40:11;;;;;;;1.20;0.63;;;1.30;89.40;;;;;;5095437;28;20082;-72
2021/03/19 05:42:37;;;;;;;0.30;0.30;;;1.20;89.40;;;;;;5113602;28;20084;-72
2021/03/19 05:45:31;;;;;;;0.38;0.38;;;1.20;89.30;;;;;;5113929;28;20477;-72
2021/03/19 05:47:58;;;;;;;0.85;0.47;;;1.20;89.30;;;;;;5114188;28;20044;-72
2021/03/19 05:50:32;;;;;;;0.60;0.30;;;1.20;89.30;;;;;;5095540;28;20420;-72
2021/03/19 05:53:16;;;;;;;0.40;0.40;;;1.40;89.40;;;;;;5113969;28;20474;-72
2021/03/19 05:55:42;;;;;;;0.50;0.40;;;1.30;89.30;;;;;;5110438;28;20044;-72
2021/03/19 05:58:27;;;;;;;0.93;0.43;;;1.30;89.30;;;;;;5113078;28;20112;-72
2021/03/19 06:00:56;;;;;;;1.25;0.52;;;1.30;89.20;;;;;;5113937;28;20392;-72
2021/03/19 06:03:22;;;;;;;0.60;0.40;;;1.30;89.20;;;;;;5114139;28;20069;-72
2021/03/19 06:06:06;;;;;;;1.05;0.40;;;1.30;89.10;;;;;;5114309;28;20101;-72
2021/03/19 06:08:35;;;;;;;0.40;0.40;;;1.30;89.10;;;;;;5113729;28;20043;-72
2021/03/19 06:11:26;;;;;;;0.93;0.43;;;1.40;89.10;;;;;;5114213;28;20483;-72
2021/03/19 06:14:00;;;;;;;0.75;0.40;;;1.40;89.00;;;;;;5113801;28;20130;-72
2021/03/19 06:16:45;;;;;;;0.85;0.50;;;1.30;88.90;;;;;;5113885;28;20035;-72
2021/03/19 06:19:47;;;;;;;1.25;0.40;;;1.30;88.80;;;;;;5113458;28;20474;-72
2021/03/19 06:22:37;;;;;;;0.52;0.40;;;1.40;88.70;;;;;;5113559;28;20038;-72
2021/03/19 06:25:21;;;;;;;0.40;0.20;;;1.40;88.60;;;;;;5113494;28;20526;-72
2021/03/19 06:27:54;;;;;;;0.68;0.30;;;1.50;88.70;;;;;;5114057;28;20134;-72
2021/03/19 06:30:36;;;;;;;0.60;0.43;;;1.50;88.60;;;;;;5113606;28;20047;-72
2021/03/19 06:33:05;;;;;;;;;;;1.50;88.60;;;;;;5113553;28;20131;-72
2021/03/19 06:35:36;;;;;;;1.15;0.55;;;1.60;88.60;;;;;;5113187;28;20404;-72
2021/03/19 06:38:27;;;;;;;0.73;0.43;;;1.60;88.40;;;;;;5113180;28;20044;-72
2021/03/19 06:40:54;;;;;;;1.75;0.40;;;1.70;88.40;;;;;;5113008;28;20039;-72
2021/03/19 06:43:29;;;;;;;0.65;0.50;;;1.80;88.30;;;;;;5113111;28;20032;-72
2021/03/19 06:46:11;;;;;;;0.50;0.40;;;1.80;88.20;;;;;;5113076;28;20028;-72
2021/03/19 06:48:42;;;;;;;1.08;0.40;;;1.90;88.10;;;;;;5110443;28;20138;-72
2021/03/19 06:51:21;;;;;;;1.20;0.63;;;1.90;88.00;;;;;;5113071;28;20127;-72
2021/03/19 06:54:00;;;;;;;0.30;0.30;;;2.00;87.90;;;;;;5112978;28;20044;-73
2021/03/19 06:56:26;;;;;;;0.85;0.57;;;2.10;87.80;;;;;;5113245;28;20040;-72
2021/03/19 06:58:53;;;;;;;0.50;0.40;;;2.10;87.60;;;;;;5112873;28;20448;-73
2021/03/19 07:01:36;;;;;;;1.13;0.68;;;2.20;87.50;;;;;;5094556;28;20046;-73
2021/03/19 07:04:30;;;;;;;1.73;0.70;;;2.30;87.40;;;;;;5094520;28;20066;-72
2021/03/19 07:07:19;;;;;;;0.93;0.68;;;2.30;87.30;;;;;;5112445;28;20043;-72
2021/03/19 07:10:02;;;;;;;0.88;0.50;;;2.40;87.20;;;;;;5112008;28;20073;-72
2021/03/19 07:13:01;;;;;;;0.95;0.60;;;2.50;87.10;;;;;;5094212;28;20047;-72
2021/03/19 07:15:51;;;;;;;0.60;0.52;;;2.60;87.00;;;;;;5112034;28;20046;-73
2021/03/19 07:18:49;;;;;;;1.95;0.95;;;2.60;86.90;;;;;;5111886;28;20086;-72
2021/03/19 07:21:55;;;;;;;1.83;0.50;;;2.70;86.80;;;;;;5091366;28;20051;-73
2021/03/19 07:24:52;;;;;;;0.90;0.50;;;2.70;86.50;;;;;;5065089;28;20040;-72
2021/03/19 07:27:41;;;;;;;0.93;0.40;;;2.90;86.50;;;;;;5091816;28;20397;-72
2021/03/19 07:30:32;;;;;;;2.33;0.52;;;3.00;86.30;;;;;;5092430;28;20070;-73
2021/03/19 07:33:27;;;;;;;1.05;0.60;;;3.10;86.20;;;;;;5092035;28;20048;-72
2021/03/19 07:36:08;;;;;;;0.73;0.40;;;3.10;86.00;;;;;;5076416;28;20080;-72
2021/03/19 07:38:58;;;;;;;0.47;0.30;;;3.20;85.80;;;;;;5092026;28;20051;-73
2021/03/19 07:41:43;;;;;;;1.00;0.47;;;3.30;85.80;;;;;;5092025;28;20044;-72
2021/03/19 07:44:35;;;;;;;0.30;0.30;;;3.30;85.60;;;;;;5091733;28;20044;-73
2021/03/19 07:47:30;;;;;;;0.80;0.40;;;3.40;85.50;;;;;;5091525;28;20127;-73
2021/03/19 07:50:09;;;;;;;0.30;0.30;;;3.60;85.40;;;;;;5076726;28;20040;-73
2021/03/19 07:52:47;;;;;;;0.68;0.40;;;3.70;85.20;;;;;;5073923;28;20031;-73
2021/03/19 07:55:27;;;;;;;0.88;0.38;;;3.70;85.10;;;;;;5092172;28;20047;-73
2021/03/19 07:58:28;;;;;;;1.02;0.30;;;3.80;84.90;;;;;;5091925;28;20048;-73
2021/03/19 08:01:09;;;;;;;0.20;0.20;;;4.00;84.80;;;;;;5091719;28;20032;-73
2021/03/19 08:03:37;;;;;;;0.43;0.30;;;4.10;84.70;;;;;;5091951;28;20056;-73
2021/03/19 08:06:13;;;;;;;0.50;0.38;;;4.20;84.50;;;;;;5091796;28;20036;-74
2021/03/19 08:08:52;;;;;;;0.57;0.30;;;4.30;84.40;;;;;;5092087;28;20051;-73
2021/03/19 08:11:51;;;;;;;0.50;0.30;;;4.50;84.30;;;;;;5091766;28;20040;-76
2021/03/19 08:14:49;;;;;;;0.47;0.40;;;4.70;84.20;;;;;;5091833;28;20085;-76
2021/03/19 08:17:36;;;;;;;0.40;0.40;;;4.70;83.90;;;;;;5076826;28;20063;-74
2021/03/19 08:20:29;;;;;;;1.00;0.40;;;4.90;83.80;;;;;;5092644;28;20398;-76
2021/03/19 08:23:08;;;;;;;1.25;0.47;;;4.90;83.70;;;;;;5066436;28;20469;-77
2021/03/19 08:25:42;;;;;;;0.45;0.40;;;5.00;83.60;;;;;;5094724;28;20055;-75
2021/03/19 08:28:28;;;;;;;0.50;0.30;;;5.10;83.50;;;;;;5095513;28;20048;-75
2021/03/19 08:31:22;;;;;;;0.75;0.40;;;5.20;83.40;;;;;;5095486;28;20131;-75
2021/03/19 08:34:08;;;;;;;1.02;0.40;;;5.20;83.30;;;;;;5091973;28;20043;-75
2021/03/19 08:36:45;;;;;;;0.55;0.40;;;5.40;83.20;;;;;;5095361;28;20080;-74
2021/03/19 08:39:30;;;;;;;0.93;0.40;;;5.50;83.10;;;;;;5077825;28;20032;-73
2021/03/19 08:42:04;;;;;;;0.30;0.30;;;5.60;83.60;;;;;;5094601;28;20036;-73
2021/03/19 08:44:36;;;;;;;0.20;0.20;;;5.70;82.90;;;;;;5094677;28;20044;-73
2021/03/19 08:47:11;;;;;;;;;;;5.80;82.70;;;;;;5095185;28;20165;-73
2021/03/19 08:49:44;;;;;;;0.20;0.20;;;5.80;82.60;;;;;;5095451;28;20396;-75
2021/03/19 08:52:30;;;;;;;0.17;0.13;;;5.90;82.50;;;;;;5077496;28;20101;-75
2021/03/19 08:55:20;;;;;;;0.20;0.20;;;6.00;82.30;;;;;;5094537;28;20510;-75
2021/03/19 08:57:50;;;;;;;0.38;0.32;;;6.00;82.20;;;;;;5094763;28;20393;-74
2021/03/19 09:00:47;;;;;;;1.27;0.40;;;6.10;82.20;;;;;;5094470;28;20569;-73
2021/03/19 09:03:47;;;;;;;0.60;0.38;;;6.10;82.00;;;;;;5094471;28;20040;-75
2021/03/19 09:06:19;;;;;;;0.85;0.50;;;6.20;81.90;;;;;;5094309;28;20043;-73
2021/03/19 09:09:12;;;;;;;0.63;0.30;;;6.30;81.90;;;;;;5094189;28;20077;-72
2021/03/19 09:12:00;;;;;;;0.80;0.40;;;6.30;81.70;;;;;;5094713;28;20060;-72
2021/03/19 09:14:33;;;;;;;0.70;0.45;;;6.40;81.60;;;;;;5079664;28;20090;-74
2021/03/19 09:16:59;;;;;;;0.95;0.47;;;6.40;81.50;;;;;;5094299;28;20098;-73
2021/03/19 09:19:42;;;;;;;0.50;0.40;;;6.50;81.40;;;;;;5093915;28;20036;-74
2021/03/19 09:22:30;;;;;;;0.73;0.50;;;6.50;81.20;;;;;;5093958;28;20067;-74
2021/03/19 09:25:17;;;;;;;1.02;0.75;;;6.50;81.10;;;;;;5093846;28;20138;-73
2021/03/19 09:28:06;;;;;;;0.50;0.50;;;6.70;81.10;;;;;;5094056;28;20055;-72
2021/03/19 09:30:45;;;;;;;0.82;0.57;;;6.60;80.80;;;;;;5078595;28;20055;-73
2021/03/19 09:33:29;;;;;;;1.02;0.70;;;6.60;80.70;;;;;;5075434;28;20036;-73
2021/03/19 09:35:55;;;;;;;0.45;0.43;;;6.70;80.70;;;;;;5075918;28;20028;-73
2021/03/19 09:38:40;;;;;;;0.75;0.40;;;6.70;80.70;;;;;;5075897;28;20512;-72
2021/03/19 09:41:09;;;;;;;1.33;0.63;;;6.80;80.60;;;;;;5093821;28;20036;-75
2021/03/19 09:43:50;;;;;;;1.35;0.55;;;6.80;80.40;;;;;;5075581;28;20127;-72
2021/03/19 09:46:26;;;;;;;0.93;0.50;;;6.90;80.30;;;;;;5093759;28;20028;-73
2021/03/19 09:48:58;;;;;;;0.50;0.50;;;7.00;80.20;;;;;;5093420;28;20123;-72
2021/03/19 09:51:31;;;;;;;0.68;0.63;;;6.90;80.00;;;;;;5075509;28;20043;-71
2021/03/19 09:53:57;;;;;;;0.60;0.60;;;7.10;80.00;;;;;;5093353;28;20052;-73
2021/03/19 09:56:28;;;;;;;0.65;0.43;;;7.10;79.90;;;;;;5093851;28;20048;-72
2021/03/19 09:58:57;;;;;;;1.83;0.70;;;7.10;79.80;;;;;;5093473;28;20047;-71
2021/03/19 10:01:42;;;;;;;0.47;0.35;;;7.20;79.60;;;;;;5090248;28;20036;-71
2021/03/19 10:04:25;;;;;;;1.30;0.60;;;7.30;79.40;;;;;;5093407;28;20047;-71
2021/03/19 10:06:51;;;;;;;0.40;0.40;;;7.40;79.30;;;;;;5093194;28;20040;-71
2021/03/19 10:09:21;;;;;;;0.70;0.40;;;7.40;79.30;;;;;;5075136;28;20406;-73
2021/03/19 10:12:10;;;;;;;0.82;0.47;;;7.50;79.20;;;;;;5093310;28;20056;-73
2021/03/19 10:14:38;;;;;;;0.80;0.50;;;7.50;78.90;;;;;;5093209;28;20066;-73
2021/03/19 10:17:19;;;;;;;0.40;0.40;;;7.60;78.80;;;;;;5093121;28;20071;-73
2021/03/19 10:19:52;;;;;;;1.20;0.50;;;7.60;78.60;;;;;;5093129;28;20105;-74
2021/03/19 10:22:35;;;;;;;0.80;0.52;;;7.60;78.30;;;;;;5093024;28;20040;-74
2021/03/19 10:25:30;;;;;;;1.15;0.63;;;7.60;78.30;;;;;;5093457;28;20072;-74
2021/03/19 10:28:00;;;;;;;0.85;0.60;;;7.70;78.10;;;;;;5093458;28;20078;-74
2021/03/19 10:30:34;;;;;;;1.02;0.60;;;7.80;78.10;;;;;;5074921;28;20074;-74
2021/03/19 10:33:10;;;;;;;1.63;0.60;;;7.80;77.80;;;;;;5073745;28;20041;-74
2021/03/19 10:35:38;;;;;;;1.40;0.70;;;7.70;77.70;;;;;;5092723;28;20047;-73
2021/03/19 10:38:23;;;;;;;0.55;0.52;;;7.80;77.80;;;;;;5092687;28;20101;-74
2021/03/19 10:40:58;;;;;;;0.75;0.52;;;7.80;77.70;;;;;;5093349;28;20035;-74
2021/03/19 10:43:45;;;;;;;1.35;0.60;;;7.80;77.60;;;;;;5073906;28;20089;-74
2021/03/19 10:46:24;;;;;;;1.48;0.60;;;7.90;78.10;;;;;;5092883;28;20109;-74
2021/03/19 10:48:57;;;;;;;1.02;0.60;;;7.90;77.50;;;;;;5092816;28;20052;-74
2021/03/19 10:51:41;;;;;;;0.95;0.75;;;8.00;77.40;;;;;;5075615;28;20043;-74
2021/03/19 10:54:21;;;;;;;0.88;0.70;;;8.10;77.10;;;;;;5092655;28;20043;-74
2021/03/19 10:56:54;;;;;;;1.08;0.60;;;8.30;76.90;;;;;;5092626;28;20068;-73
2021/03/19 10:59:33;;;;;;;1.67;0.52;;;8.30;76.70;;;;;;5092388;28;20044;-73
2021/03/19 11:02:18;;;;;;;0.82;0.60;;;8.40;76.50;;;;;;5092528;28;20036;-74
2021/03/19 11:05:02;;;;;;;0.55;0.40;;;8.50;76.40;;;;;;5073195;28;20040;-73
2021/03/19 11:07:39;;;;;;;0.40;0.40;;;8.50;76.30;;;;;;5072822;28;20039;-74
2021/03/19 11:10:18;;;;;;;0.40;0.40;;;8.70;76.30;;;;;;5092245;28;20135;-73
2021/03/19 11:12:49;;;;;;;0.93;0.55;;;8.70;76.00;;;;;;5092391;28;20047;-72
2021/03/19 11:15:44;;;;;;;0.40;0.40;;;8.80;76.00;;;;;;5092199;28;20127;-73
2021/03/19 11:18:34;;;;;;;1.55;0.60;;;8.80;75.90;;;;;;5092273;28;20169;-73
2021/03/19 11:21:28;;;;;;;0.40;0.40;;;8.90;75.60;;;;;;5060754;28;20426;-73
2021/03/19 11:24:12;;;;;;;0.43;0.40;;;9.00;75.60;;;;;;5077856;28;20044;-73
2021/03/19 11:26:39;;;;;;;0.40;0.40;;;9.10;75.50;;;;;;5092095;28;20040;-73
2021/03/19 11:29:29;;;;;;;0.85;0.45;;;9.20;75.30;;;;;;5072196;28;20060;-73
2021/03/19 11:32:02;;;;;;;1.43;0.63;;;9.20;75.10;;;;;;5091055;28;20127;-73
2021/03/19 11:34:35;;;;;;;0.85;0.50;;;9.30;75.00;;;;;;5073243;28;20320;-74
2021/03/19 11:37:32;;;;;;;0.52;0.50;;;9.30;74.80;;;;;;5092410;28;20474;-73
2021/03/19 11:40:05;;;;;;;0.93;0.73;;;9.30;74.90;;;;;;5063079;28;20141;-73
2021/03/19 11:42:45;;;;;;;1.25;0.50;;;9.30;74.90;;;;;;5092013;28;20507;-73
2021/03/19 11:45:16;;;;;;;0.97;0.40;;;9.50;74.70;;;;;;5073766;28;20043;-73
2021/03/19 11:47:48;;;;;;;0.70;0.52;;;9.60;74.60;;;;;;5092324;28;20089;-74
2021/03/19 11:50:35;;;;;;;0.63;0.63;;;9.60;74.20;;;;;;5091737;28;20492;-74
2021/03/19 11:53:05;;;;;;;1.00;0.60;;;9.80;73.70;;;;;;5076981;28;20494;-74
2021/03/19 11:55:35;;;;;;;0.43;0.40;;;9.50;73.60;;;;;;5073211;28;20037;-73
2021/03/19 11:58:01;;;;;;;0.40;0.40;;;9.40;74.20;;;;;;5095239;28;20070;-74
2021/03/19 12:00:30;;;;;;;0.82;0.50;;;9.30;74.40;;;;;;5077044;28;20051;-74
2021/03/19 12:03:01;;;;;;;0.57;0.50;;;9.60;74.30;;;;;;5077252;28;20036;-74
2021/03/19 12:05:28;;;;;;;;;;;9.70;73.90;;;;;;5095719;28;20091;-73
2021/03/19 12:07:54;;;;;;;0.50;0.40;;;9.90;73.80;;;;;;5094980;28;19915;-73
2021/03/19 12:10:22;;;;;;;0.82;0.30;;;9.90;73.20;;;;;;5095101;28;20040;-74
2021/03/19 12:12:48;;;;;;;0.68;0.40;;;9.90;73.10;;;;;;5095979;28;20047;-74
2021/03/19 12:15:16;;;;;;;0.30;0.30;;;9.80;73.10;;;;;;5095745;28;20490;-73
2021/03/19 12:17:42;;;;;;;0.50;0.40;;;9.90;73.20;;;;;;5094974;28;20513;-74
2021/03/19 12:20:09;;;;;;;0.77;0.30;;;10.00;73.10;;;;;;5077009;28;20040;-73
2021/03/19 12:22:35;;;;;;;0.50;0.40;;;10.20;72.60;;;;;;5077450;28;20035;-73
2021/03/19 12:25:01;;;;;;;0.20;0.20;;;10.20;72.10;;;;;;5076850;28;20050;-73
2021/03/19 12:27:26;;;;;;;0.50;0.25;;;10.20;72.00;;;;;;5095078;28;20509;-73
2021/03/19 12:29:52;;;;;;;0.47;0.22;;;10.40;71.80;;;;;;5076788;28;20040;-73
2021/03/19 12:32:18;;;;;;;0.30;0.30;;;10.50;71.50;;;;;;5095245;28;20570;-73
2021/03/19 12:34:46;;;;;;;0.20;0.20;;;10.40;71.40;;;;;;5095215;28;20044;-73
2021/03/19 12:37:21;;;;;;;0.68;0.43;;;10.60;71.50;;;;;;5094477;28;20051;-73
2021/03/19 12:39:47;;;;;;;1.00;0.52;;;10.70;71.90;;;;;;5094621;28;20118;-73
2021/03/19 12:42:12;;;;;;;0.20;0.20;;;10.80;70.60;;;;;;5076383;28;20040;-73
2021/03/19 12:44:38;;;;;;;0.20;0.20;;;10.70;70.40;;;;;;5076355;28;20036;-73
2021/03/19 12:47:04;;;;;;;0.17;0.17;;;10.70;70.50;;;;;;5094791;28;20059;-73
2021/03/19 12:49:30;;;;;;;0.35;0.35;;;10.60;70.80;;;;;;5094739;28;20048;-73
2021/03/19 12:51:56;;;;;;;0.30;0.30;;;10.70;70.70;;;;;;5094966;28;20104;-73
2021/03/19 12:54:22;;;;;;;1.00;0.32;;;10.80;70.50;;;;;;5094662;28;20482;-73
2021/03/19 12:56:47;;;;;;;0.17;0.17;;;10.90;70.40;;;;;;5094104;28;20115;-73
2021/03/19 12:59:13;;;;;;;0.73;0.30;;;10.90;70.40;;;;;;5094638;28;20043;-73
2021/03/19 13:01:39;;;;;;;0.30;0.30;;;11.10;70.20;;;;;;5095059;28;20048;-73
2021/03/19 13:04:05;;;;;;;0.57;0.40;;;11.10;69.60;;;;;;5094349;28;20040;-73
2021/03/19 13:06:30;;;;;;;0.30;0.30;;;11.00;69.60;;;;;;5094064;28;20037;-73
2021/03/19 13:08:56;;;;;;;0.20;0.20;;;10.80;69.90;;;;;;5076756;28;20035;-73
2021/03/19 13:11:22;;;;;;;0.52;0.30;;;10.80;70.30;;;;;;5093953;28;20047;-72
2021/03/19 13:13:48;;;;;;;0.22;0.22;;;10.80;70.30;;;;;;5094519;28;20097;-72
2021/03/19 13:16:14;;;;;;;0.35;0.30;;;10.90;70.20;;;;;;5094506;28;20028;-72
2021/03/19 13:18:40;;;;;;;0.30;0.30;;;11.00;69.80;;;;;;5094025;28;20383;-72
2021/03/19 13:21:06;;;;;;;0.85;0.30;;;11.10;69.40;;;;;;5094255;28;20462;-72
2021/03/19 13:23:33;;;;;;;0.80;0.35;;;11.20;69.20;;;;;;5093928;28;20363;-73
2021/03/19 13:25:59;;;;;;;0.60;0.25;;;11.30;69.10;;;;;;5093809;28;20040;-74
2021/03/19 13:28:25;;;;;;;0.30;0.30;;;11.30;69.00;;;;;;5093959;28;20390;-74
2021/03/19 13:30:53;;;;;;;0.30;0.20;;;11.50;68.90;;;;;;5093894;28;20092;-73
2021/03/19 13:33:20;;;;;;;0.35;0.20;;;11.60;68.40;;;;;;5094067;28;20120;-74
2021/03/19 13:35:53;;;;;;;0.52;0.20;;;11.70;68.00;;;;;;5093758;28;20055;-73